Time;durP1;ratioP1;P1;durP2;ratioP2;P2;SDS_P1;SDS_P2;PMS_P1;PMS_P2;Temp;Humidity;BMP_temperature;BMP_pressure;BME280_temperature;BME280_humidity;BME280_pressure;Samples;Min_cycle;Max_cycle;Signal;HPM_P1;HPM_P2
2022/12/17 13:06:42;;;;;;;33.20;21.13;;;;;;;-5.11;100.00;150074.09;5036595;28;20961;-79
2022/12/17 13:09:49;;;;;;;40.90;20.03;;;;;;;-4.96;100.00;150111.19;5019496;28;20514;-79
2022/12/17 13:12:53;;;;;;;33.07;21.57;;;;;;;-4.87;100.00;150132.91;5047271;28;20422;-79
2022/12/17 13:16:02;;;;;;;38.13;21.13;;;;;;;-4.87;100.00;150134.13;5044532;28;20449;-79
2022/12/17 13:19:20;;;;;;;36.97;20.30;;;;;;;-4.90;100.00;150125.22;5044389;28;20501;-79
2022/12/17 13:22:29;;;;;;;36.03;21.90;;;;;;;-4.82;100.00;150145.66;5042298;28;20431;-79
2022/12/17 13:25:34;;;;;;;40.17;24.00;;;;;;;-4.86;100.00;150136.72;5050718;28;20446;-79
2022/12/17 13:28:39;;;;;;;40.87;21.87;;;;;;;-4.80;100.00;150152.06;5044514;28;20438;-79
2022/12/17 13:31:54;;;;;;;36.77;21.77;;;;;;;-4.76;100.00;150160.97;5050829;28;20415;-79
2022/12/17 13:35:10;;;;;;;34.23;20.93;;;;;;;-4.78;100.00;150157.16;5034281;28;20495;-79
2022/12/17 13:38:21;;;;;;;32.97;20.37;;;;;;;-4.86;100.00;150136.72;5038423;28;20420;-79
2022/12/17 13:41:28;;;;;;;38.27;22.73;;;;;;;-4.90;100.00;150126.53;5046877;28;20429;-79
2022/12/17 13:44:38;;;;;;;45.83;24.30;;;;;;;-4.93;100.00;150118.84;5047180;28;20457;-79
2022/12/17 13:47:43;;;;;;;38.03;21.70;;;;;;;-5.03;100.00;150093.31;5052443;28;20476;-79
2022/12/17 13:50:54;;;;;;;39.70;22.07;;;;;;;-5.15;100.00;150062.63;5039032;28;20471;-79
2022/12/17 13:54:02;;;;;;;37.40;22.33;;;;;;;-5.21;100.00;150048.56;5040920;28;21003;-79
2022/12/17 13:57:08;;;;;;;36.50;20.40;;;;;;;-5.41;100.00;149996.22;5052654;28;20618;-79
2022/12/17 14:00:19;;;;;;;38.43;21.63;;;;;;;-5.48;100.00;149978.38;5041499;28;20482;-79
2022/12/17 14:03:23;;;;;;;36.63;20.97;;;;;;;-5.50;100.00;149974.53;5041681;28;20453;-79
2022/12/17 14:06:32;;;;;;;35.03;20.50;;;;;;;-5.50;100.00;149974.53;5041679;28;20987;-79
2022/12/17 14:09:40;;;;;;;37.00;21.20;;;;;;;-5.48;100.00;149978.38;5047318;28;21068;-79
2022/12/17 14:12:44;;;;;;;38.23;21.00;;;;;;;-5.51;100.00;149972.00;5052825;28;20427;-79
2022/12/17 14:15:51;;;;;;;38.60;21.90;;;;;;;-5.49;100.00;149977.09;5048838;28;20534;-79
2022/12/17 14:18:57;;;;;;;45.23;24.37;;;;;;;-5.55;100.00;149961.75;5034637;28;20982;-79
2022/12/17 14:22:02;;;;;;;44.30;24.90;;;;;;;-5.52;100.00;149969.41;5038857;28;20491;-79
2022/12/17 14:25:15;;;;;;;44.47;23.90;;;;;;;-5.55;100.00;149961.75;5050821;28;20424;-79
2022/12/17 14:28:23;;;;;;;45.50;23.60;;;;;;;-5.62;100.00;149945.19;5041174;28;20484;-79
2022/12/17 14:31:28;;;;;;;39.60;24.67;;;;;;;-5.67;100.00;149931.13;5038603;28;20965;-79
2022/12/17 14:34:40;;;;;;;44.60;25.53;;;;;;;-5.69;100.00;149926.00;5050445;28;20450;-79
2022/12/17 14:37:46;;;;;;;35.47;22.47;;;;;;;-5.67;100.00;149931.13;5042715;28;20928;-79
2022/12/17 14:40:52;;;;;;;40.30;23.70;;;;;;;-5.74;100.00;149914.53;5049190;28;20440;-79
2022/12/17 14:43:57;;;;;;;46.93;25.70;;;;;;;-5.69;100.00;149926.00;5051689;28;20439;-79
2022/12/17 14:47:13;;;;;;;44.97;22.80;;;;;;;-5.72;100.00;149919.63;5047610;28;20478;-79
2022/12/17 14:50:30;;;;;;;48.73;23.80;;;;;;;-5.67;100.00;149931.13;5039855;28;20470;-79
2022/12/17 14:53:34;;;;;;;55.30;28.90;;;;;;;-5.67;100.00;149931.13;5035700;28;20534;-79
2022/12/17 14:56:41;;;;;;;47.53;27.60;;;;;;;-5.62;100.00;149945.19;5049410;28;20478;-79
2022/12/17 14:59:45;;;;;;;40.73;22.83;;;;;;;-5.59;100.00;149951.56;5050934;28;20475;-79
2022/12/17 15:02:52;;;;;;;39.33;23.80;;;;;;;-5.56;100.00;149960.47;5033431;28;20453;-79
2022/12/17 15:06:01;;;;;;;40.03;24.30;;;;;;;-5.61;100.00;149946.41;5032181;28;20410;-79
2022/12/17 15:09:05;;;;;;;44.87;23.80;;;;;;;-5.72;100.00;149918.38;5040138;28;20530;-79
2022/12/17 15:12:11;;;;;;;33.60;20.57;;;;;;;-5.86;100.00;149882.69;5040778;28;20406;-79
2022/12/17 15:15:16;;;;;;;37.07;21.77;;;;;;;-5.87;100.00;149880.09;5032147;28;20971;-79
2022/12/17 15:18:20;;;;;;;38.73;23.90;;;;;;;-5.95;100.00;149859.69;5041863;28;20449;-79
2022/12/17 15:21:25;;;;;;;36.90;22.60;;;;;;;-5.95;100.00;149860.97;5046420;28;20806;-79
2022/12/17 15:24:29;;;;;;;42.33;23.77;;;;;;;-6.02;100.00;149841.84;5046048;28;20850;-79
2022/12/17 15:27:34;;;;;;;38.03;20.80;;;;;;;-6.07;100.00;149829.09;5043394;28;20929;-79
2022/12/17 15:30:39;;;;;;;42.30;24.90;;;;;;;-6.14;100.00;149811.22;5044540;28;20470;-79
2022/12/17 15:33:43;;;;;;;38.20;22.67;;;;;;;-6.18;100.00;149803.56;5050739;28;20976;-79
2022/12/17 15:36:47;;;;;;;46.43;24.23;;;;;;;-6.23;100.00;149790.81;5044548;28;20474;-79
2022/12/17 15:39:52;;;;;;;38.13;21.60;;;;;;;-6.26;100.00;149783.16;5048680;28;20479;-79
2022/12/17 15:43:14;;;;;;;40.97;23.50;;;;;;;-6.30;100.00;149772.91;5037133;28;20781;-78
2022/12/17 15:46:19;;;;;;;37.73;22.63;;;;;;;-6.24;100.00;149788.25;5036491;28;20451;-79
2022/12/17 15:49:23;;;;;;;37.00;22.37;;;;;;;-6.31;100.00;149769.13;5036083;28;20943;-79
2022/12/17 15:52:27;;;;;;;39.87;23.07;;;;;;;-6.36;100.00;149757.66;5033682;28;20406;-78
2022/12/17 15:55:32;;;;;;;34.40;21.00;;;;;;;-6.40;100.00;149747.41;5038572;28;20495;-78
2022/12/17 15:58:38;;;;;;;37.50;19.40;;;;;;;-6.40;100.00;149747.41;5038069;28;20521;-79
2022/12/17 16:01:42;;;;;;;34.90;19.30;;;;;;;-6.45;100.00;149734.66;5042642;28;20426;-78
2022/12/17 16:04:47;;;;;;;40.30;20.77;;;;;;;-6.51;100.00;149718.13;5044052;28;20541;-78
2022/12/17 16:07:51;;;;;;;37.20;20.50;;;;;;;-6.52;100.00;149716.81;5050651;28;20424;-78
2022/12/17 16:10:55;;;;;;;35.40;20.10;;;;;;;-6.56;100.00;149706.59;5050954;28;20933;-78
2022/12/17 16:14:01;;;;;;;34.30;21.77;;;;;;;-6.57;100.00;149702.78;5038527;28;20413;-78
2022/12/17 16:17:05;;;;;;;30.97;20.37;;;;;;;-6.58;100.00;149701.50;5038424;28;20512;-78
2022/12/17 16:20:10;;;;;;;34.63;21.53;;;;;;;-6.57;100.00;149702.78;5049023;28;20483;-78
2022/12/17 16:23:15;;;;;;;34.00;20.77;;;;;;;-6.62;100.00;149691.34;5039519;28;20471;-78
2022/12/17 16:26:20;;;;;;;36.07;20.63;;;;;;;-6.57;100.00;149704.09;5039193;28;20460;-78
2022/12/17 16:29:25;;;;;;;39.93;20.80;;;;;;;-6.64;100.00;149686.19;5038595;28;20954;-78
2022/12/17 16:32:29;;;;;;;34.57;19.17;;;;;;;-6.70;100.00;149669.63;5038675;28;20826;-78
2022/12/17 16:35:33;;;;;;;32.10;21.80;;;;;;;-6.77;100.00;149653.03;5047666;28;20961;-77
2022/12/17 16:38:43;;;;;;;36.63;22.70;;;;;;;-6.79;100.00;149647.94;5037241;28;21367;-77
2022/12/17 16:41:47;;;;;;;36.03;23.00;;;;;;;-6.82;100.00;149640.28;5041197;28;20548;-77
2022/12/17 16:44:53;;;;;;;34.33;22.57;;;;;;;-6.80;100.00;149645.38;5053998;28;20902;-77
2022/12/17 16:47:57;;;;;;;35.50;20.80;;;;;;;-6.82;100.00;149640.28;5051926;28;20454;-79
2022/12/17 16:51:01;;;;;;;38.23;20.37;;;;;;;-6.73;100.00;149661.97;5044292;28;20958;-79
2022/12/17 16:54:07;;;;;;;36.70;21.57;;;;;;;-6.76;100.00;149655.59;5047137;28;20477;-79
2022/12/17 16:57:11;;;;;;;42.10;26.67;;;;;;;-6.76;100.00;149655.59;5039104;28;20915;-79
2022/12/17 17:00:17;;;;;;;42.57;26.40;;;;;;;-6.80;100.00;149645.38;5043441;28;20481;-79
2022/12/17 17:03:22;;;;;;;37.13;24.70;;;;;;;-6.78;100.00;149649.25;5034844;28;20537;-79
2022/12/17 17:06:26;;;;;;;33.93;20.60;;;;;;;-6.84;100.00;149636.50;5037578;28;20432;-79
2022/12/17 17:09:31;;;;;;;36.40;19.77;;;;;;;-6.88;100.00;149624.97;5042841;28;21219;-79
2022/12/17 17:12:35;;;;;;;39.40;20.27;;;;;;;-6.89;100.00;149622.47;5051158;28;20747;-79
2022/12/17 17:15:41;;;;;;;38.83;22.17;;;;;;;-6.98;100.00;149599.50;5036292;28;20461;-79
2022/12/17 17:18:45;;;;;;;36.53;21.00;;;;;;;-6.99;100.00;149598.22;5049144;28;20436;-79
2022/12/17 17:21:51;;;;;;;42.50;22.63;;;;;;;-6.91;100.00;149617.38;5035496;28;21091;-79
2022/12/17 17:24:55;;;;;;;41.97;19.40;;;;;;;-6.95;100.00;149608.44;5039135;28;20829;-79
2022/12/17 17:28:00;;;;;;;35.17;21.10;;;;;;;-7.02;100.00;149589.31;5044390;28;20465;-79
2022/12/17 17:31:08;;;;;;;34.83;20.30;;;;;;;-7.00;100.00;149594.41;5043553;28;20479;-79
2022/12/17 17:34:13;;;;;;;35.93;20.67;;;;;;;-6.97;100.00;149603.34;5047086;28;20500;-79
2022/12/17 17:37:18;;;;;;;35.17;19.60;;;;;;;-7.04;100.00;149585.47;5053395;28;20440;-79
2022/12/17 17:40:22;;;;;;;45.03;22.50;;;;;;;-6.96;100.00;149604.56;5041888;28;20529;-79
2022/12/17 17:43:27;;;;;;;34.60;20.87;;;;;;;-7.04;100.00;149584.22;5046696;28;20445;-79
2022/12/17 17:46:35;;;;;;;40.70;20.90;;;;;;;-7.12;100.00;149563.84;5045388;28;20653;-79
2022/12/17 17:49:39;;;;;;;42.63;24.27;;;;;;;-7.10;100.00;149570.19;5033846;28;20434;-79
2022/12/17 17:52:43;;;;;;;37.90;21.37;;;;;;;-7.10;100.00;149568.91;5044710;28;20497;-79
2022/12/17 17:55:48;;;;;;;40.93;20.57;;;;;;;-7.01;100.00;149591.84;5046588;28;20528;-79
2022/12/17 17:58:54;;;;;;;40.20;22.20;;;;;;;-7.02;100.00;149589.31;5046504;28;20484;-79
2022/12/17 18:02:00;;;;;;;44.17;23.10;;;;;;;-6.98;100.00;149600.78;5043026;28;20409;-79
2022/12/17 18:05:05;;;;;;;36.83;20.17;;;;;;;-6.90;100.00;149621.19;5046150;28;20429;-79
2022/12/17 18:08:09;;;;;;;40.13;21.77;;;;;;;-6.80;100.00;149646.66;5047748;28;20442;-78
2022/12/17 18:11:16;;;;;;;36.50;19.97;;;;;;;-6.86;100.00;149630.13;5042014;28;20413;-78
2022/12/17 18:14:19;;;;;;;47.33;23.93;;;;;;;-6.88;100.00;149626.25;5059221;28;20814;-78
2022/12/17 18:17:25;;;;;;;39.17;23.93;;;;;;;-6.98;100.00;149600.78;5044756;28;20468;-78
2022/12/17 18:20:29;;;;;;;47.37;24.00;;;;;;;-6.95;100.00;149607.16;5051320;28;20970;-78
2022/12/17 18:23:34;;;;;;;38.30;22.17;;;;;;;-6.91;100.00;149618.59;5044101;28;20422;-77
2022/12/17 18:26:41;;;;;;;42.20;23.50;;;;;;;-6.88;100.00;149626.25;5043415;28;20472;-77
2022/12/17 18:29:45;;;;;;;44.17;23.87;;;;;;;-6.85;100.00;149632.63;5039797;28;20467;-77
2022/12/17 18:32:51;;;;;;;43.93;24.23;;;;;;;-6.88;100.00;149626.25;5049066;28;20951;-77
2022/12/17 18:35:55;;;;;;;37.67;21.93;;;;;;;-6.94;100.00;149609.72;5046288;28;20961;-77
2022/12/17 18:39:01;;;;;;;39.00;22.93;;;;;;;-6.92;100.00;149614.81;5048930;28;20481;-77
2022/12/17 18:45:28;;;;;;;28.87;19.77;;;;;;;-6.86;100.00;149630.13;5049589;28;20501;-77
2022/12/17 18:48:33;;;;;;;31.67;18.87;;;;;;;-6.72;100.00;149665.78;5049500;28;20420;-78
2022/12/17 18:51:38;;;;;;;30.73;19.13;;;;;;;-6.60;100.00;149696.41;5035881;28;20450;-78
2022/12/17 18:54:43;;;;;;;38.60;20.00;;;;;;;-6.52;100.00;149716.81;5047450;28;20501;-78
2022/12/17 18:57:47;;;;;;;38.20;19.27;;;;;;;-6.62;100.00;149690.03;5037044;28;20814;-78
2022/12/17 19:00:51;;;;;;;42.03;22.30;;;;;;;-6.67;100.00;149677.31;5035329;28;20903;-78
2022/12/17 19:03:58;;;;;;;41.23;21.80;;;;;;;-6.76;100.00;149655.59;5051820;28;20725;-78
2022/12/17 19:07:02;;;;;;;37.33;20.80;;;;;;;-6.83;100.00;149637.78;5051330;28;20467;-78
2022/12/17 19:10:07;;;;;;;41.03;23.17;;;;;;;-6.84;100.00;149635.22;5053719;28;20421;-78
2022/12/17 19:13:11;;;;;;;45.40;24.70;;;;;;;-6.95;100.00;149607.16;5043544;28;20467;-78
2022/12/17 19:16:17;;;;;;;33.50;20.20;;;;;;;-6.94;100.00;149609.72;5050820;28;20433;-78
2022/12/17 19:19:23;;;;;;;41.70;21.73;;;;;;;-6.94;100.00;149611.00;5050968;28;20430;-78
2022/12/17 19:22:27;;;;;;;40.77;21.97;;;;;;;-7.00;100.00;149594.41;5050030;28;20385;-78
2022/12/17 19:25:32;;;;;;;34.07;19.47;;;;;;;-6.98;100.00;149599.50;5048400;28;20542;-78
2022/12/17 19:28:36;;;;;;;43.40;23.13;;;;;;;-7.07;100.00;149577.81;5043495;28;20926;-78
2022/12/17 19:31:41;;;;;;;42.87;24.17;;;;;;;-7.18;100.00;149549.81;5032459;28;20423;-78
2022/12/17 19:34:46;;;;;;;37.93;21.33;;;;;;;-7.21;100.00;149540.88;5059131;28;20495;-78
2022/12/17 19:37:52;;;;;;;38.60;21.83;;;;;;;-7.22;100.00;149538.28;5051162;28;20436;-78
2022/12/17 19:40:56;;;;;;;37.73;21.13;;;;;;;-7.22;100.00;149538.28;5050621;28;20462;-78
2022/12/17 19:44:01;;;;;;;38.67;22.43;;;;;;;-7.28;100.00;149524.28;5044790;28;20534;-78
2022/12/17 19:47:05;;;;;;;41.33;21.50;;;;;;;-7.32;100.00;149512.81;5049229;28;20447;-78
2022/12/17 19:50:11;;;;;;;40.10;22.70;;;;;;;-7.38;100.00;149497.50;5044769;28;20428;-78
2022/12/17 19:53:16;;;;;;;40.20;22.10;;;;;;;-7.43;100.00;149487.34;5049836;28;20956;-78
2022/12/17 19:56:22;;;;;;;33.33;20.40;;;;;;;-7.47;100.00;149477.16;5050892;28;20432;-78
2022/12/17 19:59:27;;;;;;;39.20;21.13;;;;;;;-7.54;100.00;149459.28;5044639;28;20803;-78
2022/12/17 20:02:31;;;;;;;39.50;21.47;;;;;;;-7.50;100.00;149469.50;5050698;28;20496;-78
2022/12/17 20:05:37;;;;;;;39.13;21.70;;;;;;;-7.49;100.00;149472.03;5051278;28;20511;-78
2022/12/17 20:08:41;;;;;;;42.43;23.97;;;;;;;-7.53;100.00;149461.88;5046214;28;20442;-78
2022/12/17 20:11:45;;;;;;;36.47;23.37;;;;;;;-7.60;100.00;149444.00;5032005;28;20401;-78
2022/12/17 20:14:50;;;;;;;39.57;21.17;;;;;;;-7.60;100.00;149444.00;5036205;28;20449;-78
2022/12/17 20:17:54;;;;;;;34.87;22.03;;;;;;;-7.68;100.00;149422.38;5039976;28;20924;-78
2022/12/17 20:21:05;;;;;;;39.53;22.97;;;;;;;-7.56;100.00;149452.94;5052792;28;20449;-78
2022/12/17 20:24:10;;;;;;;36.97;23.00;;;;;;;-7.51;100.00;149466.94;5054433;28;20477;-78
2022/12/17 20:27:14;;;;;;;34.47;20.70;;;;;;;-7.42;100.00;149488.63;5053694;28;20455;-78
2022/12/17 20:30:18;;;;;;;34.80;19.97;;;;;;;-7.29;100.00;149521.75;5049868;28;20956;-78
2022/12/17 20:33:23;;;;;;;37.70;22.23;;;;;;;-7.31;100.00;149515.38;5050330;28;20481;-78
2022/12/17 20:36:29;;;;;;;40.13;22.70;;;;;;;-7.31;100.00;149515.38;5053412;28;20549;-78
2022/12/17 20:39:34;;;;;;;40.07;20.77;;;;;;;-7.25;100.00;149531.94;5035232;28;20435;-78
2022/12/17 20:42:38;;;;;;;31.47;19.60;;;;;;;-7.25;100.00;149530.69;5051833;28;20947;-77
2022/12/17 20:45:48;;;;;;;45.13;21.77;;;;;;;-7.29;100.00;149520.47;5052842;28;20460;-78
2022/12/17 20:48:52;;;;;;;36.40;19.53;;;;;;;-7.36;100.00;149502.66;5047788;28;20809;-78
2022/12/17 20:51:57;;;;;;;33.23;19.63;;;;;;;-7.35;100.00;149506.44;5050254;28;20505;-78
2022/12/17 20:55:02;;;;;;;44.53;21.13;;;;;;;-7.35;100.00;149505.16;5037023;28;20497;-78
2022/12/17 20:58:06;;;;;;;35.27;20.93;;;;;;;-7.35;100.00;149505.16;5034569;28;20437;-78
2022/12/17 21:01:13;;;;;;;36.43;20.37;;;;;;;-7.26;100.00;149528.13;5042895;28;20457;-78
2022/12/17 21:04:17;;;;;;;36.57;21.30;;;;;;;-7.28;100.00;149523.03;5049681;28;20473;-78
2022/12/17 21:07:23;;;;;;;41.10;20.60;;;;;;;-7.26;100.00;149529.41;5047921;28;20438;-78
2022/12/17 21:10:27;;;;;;;34.63;19.30;;;;;;;-7.27;100.00;149525.56;5043662;28;20469;-78
2022/12/17 21:13:31;;;;;;;35.73;21.77;;;;;;;-7.33;100.00;149510.31;5046825;28;20442;-78
2022/12/17 21:16:36;;;;;;;37.60;23.00;;;;;;;-7.35;100.00;149505.16;5045694;28;20443;-78
2022/12/17 21:19:41;;;;;;;38.90;23.50;;;;;;;-7.48;100.00;149474.59;5039484;28;20605;-79
2022/12/17 21:22:47;;;;;;;38.50;22.17;;;;;;;-7.57;100.00;149451.66;5048511;28;20956;-77
2022/12/17 21:26:00;;;;;;;40.13;22.27;;;;;;;-7.59;100.00;149445.28;5044802;28;20465;-77
2022/12/17 21:29:06;;;;;;;41.77;21.17;;;;;;;-7.62;100.00;149437.63;5049275;28;20448;-78
2022/12/17 21:32:10;;;;;;;40.17;22.53;;;;;;;-7.54;100.00;149458.00;5050944;28;20431;-78
2022/12/17 21:35:16;;;;;;;37.13;20.60;;;;;;;-7.41;100.00;149492.41;5052122;28;20580;-78
2022/12/17 21:38:22;;;;;;;29.17;18.13;;;;;;;-7.48;100.00;149474.59;5050757;28;20473;-78
2022/12/17 21:41:27;;;;;;;33.97;21.97;;;;;;;-7.54;100.00;149459.28;5045588;28;20967;-78
2022/12/17 21:44:32;;;;;;;35.60;20.20;;;;;;;-7.52;100.00;149464.38;5053793;28;20489;-78
2022/12/17 21:47:36;;;;;;;33.58;19.85;;;;;;;-7.52;100.00;149463.16;5051578;28;20953;-77
2022/12/17 21:50:41;;;;;;;34.97;21.73;;;;;;;-7.55;100.00;149455.50;5046429;28;20250;-77
2022/12/17 21:53:48;;;;;;;36.23;20.80;;;;;;;-7.58;100.00;149449.13;5053452;28;20406;-77
2022/12/17 21:56:52;;;;;;;36.75;22.52;;;;;;;-7.67;100.00;149426.19;5049930;28;20409;-77
2022/12/17 21:59:56;;;;;;;36.50;22.20;;;;;;;-7.68;100.00;149423.66;5051068;28;20217;-77
2022/12/17 22:03:01;;;;;;;39.90;22.27;;;;;;;-7.64;100.00;149433.81;5051441;28;20392;-78
2022/12/17 22:06:07;;;;;;;34.67;20.53;;;;;;;-7.61;100.00;149440.19;5039458;28;20441;-77
2022/12/17 22:09:12;;;;;;;32.00;19.37;;;;;;;-7.61;100.00;149441.47;5040568;28;20933;-78
2022/12/17 22:15:39;;;;;;;29.30;16.90;;;;;;;-7.48;100.00;149474.59;5036245;28;20458;-78
2022/12/17 22:18:43;;;;;;;34.57;18.90;;;;;;;-7.45;100.00;149480.97;5047536;28;20473;-79
2022/12/17 22:21:47;;;;;;;31.00;18.80;;;;;;;-7.45;100.00;149482.25;5042168;28;20832;-78
2022/12/17 22:24:53;;;;;;;31.37;20.00;;;;;;;-7.35;100.00;149505.16;5041984;28;20413;-78
2022/12/17 22:27:51;;;;;;;32.57;20.00;;;;;;;-7.24;100.00;149533.22;5048433;28;20438;-78
2022/12/17 22:33:39;;;;;;;37.17;19.87;;;;;;;-7.37;100.00;149500.09;5043698;28;20987;-78
2022/12/17 22:36:25;;;;;;;27.23;19.93;;;;;;;-7.33;100.00;149510.31;5035438;28;20593;-77
2022/12/17 22:39:12;;;;;;;33.77;19.80;;;;;;;-7.37;100.00;149500.09;5039032;28;20425;-78
2022/12/17 22:45:02;;;;;;;37.20;22.13;;;;;;;-7.33;100.00;149511.53;5046906;28;20996;-77
2022/12/17 22:47:47;;;;;;;35.17;19.17;;;;;;;-7.29;100.00;149521.75;5048716;28;20420;-78
2022/12/17 22:50:32;;;;;;;35.90;20.80;;;;;;;-7.23;100.00;149537.06;5048824;28;20505;-78
2022/12/17 22:53:18;;;;;;;39.07;22.03;;;;;;;-7.11;100.00;149566.34;5049069;28;20426;-78
2022/12/17 22:56:05;;;;;;;37.10;20.97;;;;;;;-7.14;100.00;149559.97;5036810;28;20485;-78
2022/12/17 22:58:51;;;;;;;32.60;19.07;;;;;;;-7.05;100.00;149581.66;5052016;28;20454;-77
2022/12/17 23:01:37;;;;;;;33.87;20.47;;;;;;;-7.09;100.00;149571.44;5050725;28;20412;-77
2022/12/17 23:04:22;;;;;;;39.90;21.50;;;;;;;-7.18;100.00;149548.53;5042484;28;20836;-77
2022/12/17 23:07:08;;;;;;;37.93;19.87;;;;;;;-7.23;100.00;149535.78;5050603;28;20462;-77
2022/12/17 23:09:53;;;;;;;38.00;21.00;;;;;;;-7.10;100.00;149570.19;5051660;28;20425;-77
2022/12/17 23:12:51;;;;;;;21.77;14.20;;;;;;;-7.08;100.00;149574.00;5051010;28;20810;-78
2022/12/17 23:15:37;;;;;;;32.47;17.90;;;;;;;-7.15;100.00;149556.19;5050429;28;20789;-78
2022/12/17 23:18:23;;;;;;;36.50;20.43;;;;;;;-7.25;100.00;149531.94;5051121;28;20546;-78
2022/12/17 23:21:10;;;;;;;33.27;20.50;;;;;;;-7.11;100.00;149567.63;5037027;28;20815;-78
2022/12/17 23:23:56;;;;;;;30.50;19.67;;;;;;;-7.15;100.00;149556.19;5049567;28;20592;-77
2022/12/17 23:26:41;;;;;;;34.37;21.60;;;;;;;-7.27;100.00;149526.84;5052159;28;20377;-78
2022/12/17 23:29:27;;;;;;;41.27;21.33;;;;;;;-7.32;100.00;149512.81;5051039;28;20418;-77
2022/12/17 23:32:13;;;;;;;40.40;22.77;;;;;;;-7.36;100.00;149503.94;5051482;28;20520;-77
2022/12/17 23:34:59;;;;;;;40.50;24.07;;;;;;;-7.36;100.00;149503.94;5051438;28;20445;-78
2022/12/17 23:37:45;;;;;;;34.27;19.03;;;;;;;-7.37;100.00;149500.09;5049977;28;20537;-78
2022/12/17 23:40:30;;;;;;;34.43;20.47;;;;;;;-7.30;100.00;149517.91;5048246;28;20761;-78
2022/12/17 23:43:15;;;;;;;33.83;21.10;;;;;;;-7.20;100.00;149543.44;5051065;28;20442;-78
2022/12/17 23:46:01;;;;;;;40.70;21.20;;;;;;;-7.36;100.00;149502.66;5050586;28;20502;-77
2022/12/17 23:48:49;;;;;;;34.87;20.30;;;;;;;-7.47;100.00;149477.16;5049796;28;20442;-78
2022/12/17 23:51:34;;;;;;;33.93;18.70;;;;;;;-7.53;100.00;149461.88;5043171;28;20996;-78
2022/12/17 23:54:20;;;;;;;41.40;21.90;;;;;;;-7.59;100.00;149446.56;5041957;28;20528;-77
2022/12/17 23:57:05;;;;;;;32.83;19.60;;;;;;;-7.64;100.00;149433.81;5050376;28;20450;-78
2022/12/17 23:59:50;;;;;;;36.27;20.80;;;;;;;-7.62;100.00;149438.91;5043170;28;20409;-78
